Time;durP1;ratioP1;P1;durP2;ratioP2;P2;SDS_P1;SDS_P2;PMS_P1;PMS_P2;Temp;Humidity;BMP_temperature;BMP_pressure;BME280_temperature;BME280_humidity;BME280_pressure;Samples;Min_cycle;Max_cycle;Signal;HPM_P1;HPM_P2
2022/07/25 00:00:10;;;;;;;4.30;2.65;;;25.70;46.00;;;;;;2340220;54;20952;-74
2022/07/25 00:02:37;;;;;;;3.80;2.40;;;25.60;46.10;;;;;;2329061;54;21008;-75
2022/07/25 00:05:04;;;;;;;4.20;2.70;;;25.60;46.00;;;;;;2314803;54;21605;-72
2022/07/25 00:07:32;;;;;;;3.85;2.80;;;25.60;46.30;;;;;;2526613;53;21996;-73
2022/07/25 00:09:58;;;;;;;4.12;2.90;;;25.50;46.20;;;;;;2356959;53;21224;-75
2022/07/25 00:12:24;;;;;;;3.65;2.60;;;25.50;46.30;;;;;;2378486;53;21024;-75
2022/07/25 00:14:51;;;;;;;3.55;2.45;;;25.50;46.40;;;;;;2349817;53;21541;-73
2022/07/25 00:17:17;;;;;;;3.67;2.45;;;25.40;46.40;;;;;;2380394;53;21507;-73
2022/07/25 00:19:43;;;;;;;4.00;2.58;;;25.40;46.40;;;;;;2331396;54;20924;-75
2022/07/25 00:22:11;;;;;;;3.50;2.20;;;25.30;46.40;;;;;;2320212;54;20973;-72
2022/07/25 00:24:38;;;;;;;3.47;2.25;;;25.30;46.50;;;;;;2317496;54;21527;-76
2022/07/25 00:27:04;;;;;;;3.95;2.53;;;25.20;46.60;;;;;;2315588;54;21024;-72
2022/07/25 00:29:31;;;;;;;3.35;2.22;;;25.20;46.70;;;;;;2321296;54;21037;-72
2022/07/25 00:31:58;;;;;;;4.03;2.40;;;25.20;46.80;;;;;;2327168;54;20923;-72
2022/07/25 00:34:24;;;;;;;3.70;2.60;;;25.10;46.80;;;;;;2333200;53;20994;-73
2022/07/25 00:36:50;;;;;;;4.80;2.40;;;25.10;47.00;;;;;;2319780;54;20957;-72
2022/07/25 00:39:18;;;;;;;4.03;2.60;;;25.00;47.00;;;;;;2534829;53;20948;-72
2022/07/25 00:41:44;;;;;;;3.87;2.37;;;25.00;47.00;;;;;;2329363;54;21441;-73
2022/07/25 00:44:33;;;;;;;3.50;2.30;;;25.00;47.10;;;;;;2314941;54;21078;-72
2022/07/25 00:46:59;;;;;;;4.20;2.60;;;25.00;47.50;;;;;;2298405;54;21911;-73
2022/07/25 00:49:26;;;;;;;3.62;2.35;;;24.90;47.20;;;;;;2323342;54;20985;-72
2022/07/25 00:51:52;;;;;;;3.58;2.47;;;24.90;47.20;;;;;;2355058;54;21027;-73
2022/07/25 00:54:18;;;;;;;4.57;3.28;;;24.80;47.30;;;;;;2314878;54;21342;-74
2022/07/25 00:56:45;;;;;;;4.62;3.30;;;24.80;47.60;;;;;;2314817;54;21871;-74
2022/07/25 00:59:13;;;;;;;3.92;2.92;;;24.80;47.80;;;;;;2303569;54;20958;-72
2022/07/25 01:01:41;;;;;;;3.60;2.60;;;24.70;47.70;;;;;;2330692;54;20964;-72
2022/07/25 01:04:07;;;;;;;3.80;2.50;;;24.70;47.70;;;;;;2308660;55;20948;-74
2022/07/25 01:06:34;;;;;;;3.83;2.58;;;24.60;47.70;;;;;;2319199;53;21351;-72
2022/07/25 01:09:03;;;;;;;4.43;2.67;;;24.60;47.80;;;;;;2316420;54;20913;-72
2022/07/25 01:11:32;;;;;;;4.10;2.78;;;24.60;47.80;;;;;;2310648;55;20967;-72
2022/07/25 01:13:58;;;;;;;4.37;2.97;;;24.60;47.90;;;;;;2316265;54;20986;-73
2022/07/25 01:16:25;;;;;;;3.78;2.45;;;24.50;47.90;;;;;;2322924;54;20995;-72
2022/07/25 01:18:52;;;;;;;4.97;3.17;;;24.50;48.00;;;;;;2320005;54;21721;-73
2022/07/25 01:21:19;;;;;;;4.87;2.60;;;24.40;48.00;;;;;;2316733;55;21010;-72
2022/07/25 01:23:45;;;;;;;4.10;2.87;;;24.40;48.10;;;;;;2439139;53;20995;-72
2022/07/25 01:26:13;;;;;;;3.97;2.60;;;24.40;48.10;;;;;;2321304;54;20984;-72
2022/07/25 01:28:40;;;;;;;5.32;2.62;;;24.30;48.10;;;;;;2328023;54;21028;-73
2022/07/25 01:31:07;;;;;;;4.35;2.65;;;24.30;48.20;;;;;;2564842;53;21902;-76
2022/07/25 01:33:33;;;;;;;3.85;2.10;;;24.30;48.30;;;;;;2559396;53;21013;-72
2022/07/25 01:36:00;;;;;;;3.80;2.42;;;24.20;48.30;;;;;;2322535;54;21089;-73
2022/07/25 01:38:26;;;;;;;3.47;2.35;;;24.20;48.40;;;;;;2334203;54;20924;-75
2022/07/25 01:40:53;;;;;;;3.87;2.67;;;24.20;48.40;;;;;;2336071;54;21022;-74
2022/07/25 01:43:21;;;;;;;5.82;3.15;;;24.20;48.60;;;;;;2317204;54;21013;-74
2022/07/25 01:45:48;;;;;;;4.25;2.70;;;24.10;48.80;;;;;;2315999;54;20975;-74
2022/07/25 01:48:18;;;;;;;4.28;2.83;;;24.10;48.90;;;;;;2564429;53;21024;-72
2022/07/25 01:50:44;;;;;;;4.32;2.70;;;24.10;48.90;;;;;;2325009;54;21041;-74
2022/07/25 01:53:12;;;;;;;4.35;3.03;;;24.10;48.90;;;;;;2333637;54;20914;-73
2022/07/25 01:55:39;;;;;;;4.60;2.70;;;24.00;48.90;;;;;;2480923;53;20968;-73
2022/07/25 01:58:06;;;;;;;5.50;2.42;;;24.00;49.00;;;;;;2408340;54;20986;-72
2022/07/25 02:00:33;;;;;;;4.20;2.85;;;24.00;49.00;;;;;;2326130;54;21008;-72
2022/07/25 02:05:45;;;;;;;4.18;3.15;;;23.90;49.10;;;;;;2305894;54;21001;-74
2022/07/25 02:08:11;;;;;;;4.18;2.65;;;23.90;49.20;;;;;;2335674;54;20941;-72
2022/07/25 02:10:38;;;;;;;4.10;3.00;;;23.90;49.30;;;;;;2327974;54;20980;-73
2022/07/25 02:13:07;;;;;;;4.97;2.70;;;23.80;49.50;;;;;;2399522;54;21845;-74
2022/07/25 02:15:34;;;;;;;3.45;2.55;;;23.80;49.50;;;;;;2320124;54;21048;-74
2022/07/25 02:18:01;;;;;;;3.60;2.58;;;23.80;49.50;;;;;;2378391;53;21631;-73
2022/07/25 02:20:27;;;;;;;4.10;2.62;;;23.80;49.50;;;;;;2322417;54;20965;-74
2022/07/25 02:22:53;;;;;;;3.40;2.45;;;23.80;49.60;;;;;;2327645;54;20988;-72
2022/07/25 02:25:20;;;;;;;3.55;2.40;;;23.70;49.50;;;;;;2313041;54;21482;-72
2022/07/25 02:27:46;;;;;;;3.35;2.42;;;23.70;49.50;;;;;;2320891;54;21001;-72
2022/07/25 02:30:16;;;;;;;3.72;2.45;;;23.70;49.60;;;;;;2321452;54;20966;-73
2022/07/25 02:32:43;;;;;;;4.07;2.42;;;23.70;49.70;;;;;;2392617;53;21438;-73
2022/07/25 02:35:09;;;;;;;4.25;3.05;;;23.70;49.70;;;;;;2325127;54;21061;-73
2022/07/25 02:37:36;;;;;;;4.32;2.92;;;23.60;49.90;;;;;;2328324;54;21057;-71
2022/07/25 02:40:03;;;;;;;3.67;2.70;;;23.60;49.90;;;;;;2318583;54;21731;-75
2022/07/25 02:42:29;;;;;;;4.05;2.83;;;23.60;49.90;;;;;;2342422;54;20920;-73
2022/07/25 02:44:55;;;;;;;3.50;2.35;;;23.50;49.80;;;;;;2570244;53;21832;-72
2022/07/25 02:47:22;;;;;;;4.00;2.55;;;23.50;49.90;;;;;;2318510;54;20953;-73
2022/07/25 02:49:49;;;;;;;3.97;2.80;;;23.50;50.00;;;;;;2326695;54;21031;-74
2022/07/25 02:52:17;;;;;;;3.80;2.70;;;23.50;50.00;;;;;;2321751;54;21012;-73
2022/07/25 02:54:44;;;;;;;4.18;2.87;;;23.50;50.00;;;;;;2477452;53;20916;-72
2022/07/25 02:57:13;;;;;;;4.32;2.95;;;23.50;50.10;;;;;;2319266;54;20942;-71
2022/07/25 02:59:40;;;;;;;4.50;2.70;;;23.40;50.00;;;;;;2325159;54;20941;-72
2022/07/25 03:02:08;;;;;;;3.95;2.55;;;23.40;50.10;;;;;;2556850;53;20977;-73
2022/07/25 03:08:02;;;;;;;4.45;2.58;;;23.40;50.60;;;;;;2336984;54;20981;-72
2022/07/25 03:10:29;;;;;;;4.00;2.55;;;23.40;50.10;;;;;;2321357;54;21033;-73
2022/07/25 03:12:55;;;;;;;4.45;2.90;;;23.40;50.20;;;;;;2332209;54;20965;-75
2022/07/25 03:15:22;;;;;;;4.10;2.70;;;23.30;50.20;;;;;;2556025;53;20945;-75
2022/07/25 03:17:48;;;;;;;4.10;2.90;;;23.30;50.30;;;;;;2344566;53;20975;-72
2022/07/25 03:20:16;;;;;;;4.15;2.60;;;23.30;50.40;;;;;;2319283;54;20992;-71
2022/07/25 03:22:42;;;;;;;3.40;2.40;;;23.30;50.50;;;;;;2317071;54;20944;-72
2022/07/25 03:25:09;;;;;;;4.97;3.03;;;23.20;50.40;;;;;;2331302;54;21553;-72
2022/07/25 03:27:37;;;;;;;5.93;3.45;;;23.20;50.60;;;;;;2328664;54;20940;-72
2022/07/25 03:30:03;;;;;;;4.25;2.92;;;23.20;50.70;;;;;;2343961;54;20925;-72
2022/07/25 03:32:30;;;;;;;4.12;3.08;;;23.20;50.70;;;;;;2322110;54;20945;-73
2022/07/25 03:34:57;;;;;;;4.60;3.17;;;23.20;50.70;;;;;;2318881;54;20907;-72
2022/07/25 03:37:23;;;;;;;4.70;3.35;;;23.20;50.80;;;;;;2324419;54;20944;-72
2022/07/25 03:39:51;;;;;;;4.05;3.05;;;23.20;50.90;;;;;;2329539;54;20941;-72
2022/07/25 03:42:17;;;;;;;4.18;3.00;;;23.20;50.90;;;;;;2318165;54;20944;-72
2022/07/25 03:44:50;;;;;;;4.50;3.03;;;23.10;50.90;;;;;;2472122;53;21080;-75
2022/07/25 03:47:17;;;;;;;4.35;3.25;;;23.20;51.00;;;;;;2325631;54;21014;-75
2022/07/25 03:49:43;;;;;;;4.62;3.35;;;23.10;51.00;;;;;;2318182;54;20917;-72
2022/07/25 03:52:10;;;;;;;5.20;3.95;;;23.10;51.00;;;;;;2320009;54;20952;-71
2022/07/25 03:54:36;;;;;;;4.18;3.05;;;23.10;51.30;;;;;;2341895;54;21339;-72
2022/07/25 03:57:04;;;;;;;5.78;3.37;;;23.10;51.30;;;;;;2325868;54;20956;-72
2022/07/25 03:59:30;;;;;;;4.28;3.30;;;23.10;51.30;;;;;;2333770;54;20945;-72
2022/07/25 04:01:57;;;;;;;4.50;3.15;;;23.10;51.30;;;;;;2325337;54;21070;-71
2022/07/25 04:04:24;;;;;;;6.20;3.58;;;23.10;51.40;;;;;;2336566;54;20933;-72
2022/07/25 04:06:51;;;;;;;5.70;4.30;;;23.10;51.50;;;;;;2438551;53;20962;-72
2022/07/25 04:09:17;;;;;;;4.97;3.53;;;23.00;51.50;;;;;;2322895;54;20960;-72
2022/07/25 04:11:44;;;;;;;4.32;2.90;;;23.00;51.50;;;;;;2334867;54;20944;-76
2022/07/25 04:14:10;;;;;;;4.22;3.00;;;23.00;51.60;;;;;;2319288;54;20927;-71
2022/07/25 04:16:37;;;;;;;4.53;2.97;;;23.00;51.60;;;;;;2336135;54;22094;-71
2022/07/25 04:19:05;;;;;;;4.75;3.03;;;23.00;51.60;;;;;;2320697;54;21013;-74
2022/07/25 04:21:33;;;;;;;5.45;3.28;;;23.00;51.60;;;;;;2331072;54;20980;-71
2022/07/25 04:23:59;;;;;;;4.10;2.83;;;23.00;51.60;;;;;;2555380;53;20985;-72
2022/07/25 04:26:25;;;;;;;3.90;2.92;;;23.00;51.60;;;;;;2324910;54;20911;-72
2022/07/25 04:28:52;;;;;;;6.35;3.62;;;23.00;51.70;;;;;;2453063;53;20938;-71
2022/07/25 04:31:19;;;;;;;6.47;3.85;;;23.00;51.90;;;;;;2323135;54;20993;-73
2022/07/25 04:33:46;;;;;;;4.53;3.25;;;23.00;52.10;;;;;;2358683;54;21899;-72
2022/07/25 04:36:12;;;;;;;4.50;3.30;;;23.00;52.20;;;;;;2324356;54;21009;-72
2022/07/25 04:38:39;;;;;;;4.57;3.28;;;23.00;52.10;;;;;;2333015;54;21903;-71
2022/07/25 04:41:06;;;;;;;4.35;3.10;;;23.00;52.10;;;;;;2357630;53;20933;-71
2022/07/25 04:43:34;;;;;;;3.90;2.70;;;23.00;52.10;;;;;;2497132;53;20949;-71
2022/07/25 04:46:00;;;;;;;5.45;2.80;;;23.00;52.10;;;;;;2326365;54;21018;-72
2022/07/25 04:48:28;;;;;;;5.40;3.47;;;23.00;52.10;;;;;;2308401;54;20974;-73
2022/07/25 04:50:55;;;;;;;4.07;3.03;;;23.00;52.10;;;;;;2392928;53;20981;-71
2022/07/25 04:53:23;;;;;;;4.57;3.15;;;23.00;52.20;;;;;;2444551;53;21009;-76
2022/07/25 04:55:49;;;;;;;4.18;3.17;;;23.00;52.20;;;;;;2336633;54;20953;-71
2022/07/25 04:58:15;;;;;;;4.93;3.58;;;23.00;52.20;;;;;;2324376;54;21829;-72
2022/07/25 05:00:42;;;;;;;4.43;3.10;;;23.00;52.30;;;;;;2319528;54;20934;-73
2022/07/25 05:03:10;;;;;;;4.72;3.33;;;23.00;52.30;;;;;;2333194;54;21629;-75
2022/07/25 05:05:36;;;;;;;4.43;3.33;;;23.00;52.50;;;;;;2324862;54;21024;-75
2022/07/25 05:08:04;;;;;;;4.93;3.45;;;23.00;52.50;;;;;;2344222;54;21801;-71
2022/07/25 05:10:31;;;;;;;4.43;3.30;;;23.00;52.60;;;;;;2341825;54;21083;-74
2022/07/25 05:12:57;;;;;;;6.18;3.30;;;23.00;52.60;;;;;;2344172;54;20936;-72
2022/07/25 05:15:24;;;;;;;4.47;3.30;;;23.10;52.70;;;;;;2341543;54;20927;-75
2022/07/25 05:17:51;;;;;;;4.85;3.33;;;23.10;52.80;;;;;;2341182;54;21438;-70
2022/07/25 05:20:17;;;;;;;4.70;3.90;;;23.10;52.80;;;;;;2318806;54;20957;-72
2022/07/25 05:22:44;;;;;;;4.18;3.35;;;23.10;52.90;;;;;;2317904;54;21061;-74
2022/07/25 05:25:10;;;;;;;4.95;3.45;;;23.10;53.00;;;;;;2317827;54;20953;-72
2022/07/25 05:27:37;;;;;;;5.22;3.25;;;23.20;53.10;;;;;;2311287;54;20929;-71
2022/07/25 05:30:05;;;;;;;5.15;3.70;;;23.20;53.20;;;;;;2298931;54;21036;-72
2022/07/25 05:32:32;;;;;;;4.22;2.90;;;23.20;53.30;;;;;;2435455;53;21856;-71
2022/07/25 05:34:58;;;;;;;5.68;3.90;;;23.20;53.30;;;;;;2332565;54;20927;-71
2022/07/25 05:37:25;;;;;;;7.47;3.75;;;23.30;53.50;;;;;;2397577;53;20959;-71
2022/07/25 05:39:52;;;;;;;4.47;3.35;;;23.30;53.50;;;;;;2295687;54;21109;-73
2022/07/25 05:42:21;;;;;;;4.85;3.47;;;23.30;53.40;;;;;;2312858;54;20999;-74
2022/07/25 05:44:47;;;;;;;4.80;3.37;;;23.40;53.60;;;;;;2326664;54;21013;-72
2022/07/25 05:47:14;;;;;;;4.18;3.20;;;23.40;53.60;;;;;;2319919;54;20951;-72
2022/07/25 05:49:41;;;;;;;5.57;3.40;;;23.40;53.60;;;;;;2327444;53;21842;-72
2022/07/25 05:52:08;;;;;;;4.90;3.28;;;23.50;53.70;;;;;;2313293;54;21018;-75
2022/07/25 05:54:36;;;;;;;5.03;3.47;;;23.50;53.70;;;;;;2329098;53;20982;-73
2022/07/25 05:57:03;;;;;;;5.72;3.40;;;23.60;53.80;;;;;;2315115;54;20956;-72
2022/07/25 05:59:29;;;;;;;5.10;3.70;;;23.60;53.80;;;;;;2294931;55;21023;-72
2022/07/25 06:02:00;;;;;;;5.10;3.97;;;23.70;53.80;;;;;;2308771;54;20999;-73
2022/07/25 06:04:26;;;;;;;4.78;3.45;;;23.70;54.00;;;;;;2401379;52;20953;-73
2022/07/25 06:06:53;;;;;;;4.90;3.42;;;23.80;54.00;;;;;;2343552;54;21885;-74
2022/07/25 06:09:20;;;;;;;4.97;3.67;;;23.80;54.00;;;;;;2296965;54;21077;-73
2022/07/25 06:11:47;;;;;;;4.62;3.40;;;23.90;54.10;;;;;;2322845;53;20948;-73
2022/07/25 06:14:13;;;;;;;5.65;4.07;;;23.90;54.10;;;;;;2330159;54;21033;-75
2022/07/25 06:16:41;;;;;;;7.62;4.00;;;24.00;54.20;;;;;;2348552;53;21024;-72
2022/07/25 06:19:07;;;;;;;5.37;3.95;;;24.10;54.30;;;;;;2339247;53;20964;-72
2022/07/25 06:21:36;;;;;;;4.85;3.45;;;24.20;54.30;;;;;;2343079;54;21913;-75
2022/07/25 06:24:03;;;;;;;5.05;3.87;;;24.30;54.40;;;;;;2347302;53;21052;-72
2022/07/25 06:26:30;;;;;;;4.95;3.53;;;24.30;54.40;;;;;;2326508;54;20991;-71
2022/07/25 06:28:56;;;;;;;6.05;3.97;;;24.40;54.40;;;;;;2328856;54;21002;-74
2022/07/25 06:31:23;;;;;;;5.07;4.15;;;24.50;54.50;;;;;;2339162;53;21718;-72
2022/07/25 06:33:49;;;;;;;5.32;3.37;;;24.60;54.40;;;;;;2335770;54;20974;-72
2022/07/25 06:36:16;;;;;;;5.25;3.85;;;24.60;54.40;;;;;;2456008;53;21036;-73
2022/07/25 06:38:42;;;;;;;4.97;3.70;;;24.70;54.40;;;;;;2342574;54;20990;-72
2022/07/25 06:41:13;;;;;;;4.60;3.67;;;24.80;54.50;;;;;;2348830;54;20920;-72
2022/07/25 06:43:39;;;;;;;5.53;3.70;;;24.90;54.60;;;;;;2329559;54;21008;-75
2022/07/25 06:46:06;;;;;;;4.20;3.35;;;25.00;54.50;;;;;;2349903;54;20951;-72
2022/07/25 06:48:32;;;;;;;4.65;3.58;;;25.10;54.50;;;;;;2334767;55;20998;-73
2022/07/25 06:50:59;;;;;;;5.12;3.50;;;25.20;54.40;;;;;;2326623;54;20916;-72
2022/07/25 06:53:25;;;;;;;5.47;3.67;;;25.30;54.40;;;;;;2342879;53;20972;-71
2022/07/25 06:55:57;;;;;;;5.05;3.78;;;25.40;54.40;;;;;;2337706;54;21524;-72
2022/07/25 06:58:25;;;;;;;5.47;4.03;;;25.40;54.30;;;;;;2343694;53;20943;-73
2022/07/25 07:00:55;;;;;;;5.50;3.92;;;25.60;54.30;;;;;;2337695;54;21491;-75
2022/07/25 07:03:21;;;;;;;4.72;3.80;;;25.70;54.20;;;;;;2333338;53;20928;-72
2022/07/25 07:05:50;;;;;;;5.15;3.95;;;25.70;54.10;;;;;;2328746;54;20988;-74
2022/07/25 07:08:21;;;;;;;5.35;4.00;;;25.90;54.10;;;;;;2324093;54;20960;-74
2022/07/25 07:10:49;;;;;;;5.07;3.25;;;25.90;53.90;;;;;;2510997;53;20995;-74
2022/07/25 07:13:17;;;;;;;6.68;3.87;;;26.10;54.00;;;;;;2342900;53;21714;-72
2022/07/25 07:15:48;;;;;;;6.45;4.25;;;26.20;53.90;;;;;;2340334;54;20950;-72
2022/07/25 07:18:18;;;;;;;4.85;3.65;;;26.30;53.80;;;;;;2337849;53;21954;-74
2022/07/25 07:20:47;;;;;;;5.53;4.07;;;26.40;53.80;;;;;;2349327;54;20972;-73
2022/07/25 07:23:14;;;;;;;5.15;4.15;;;26.50;53.70;;;;;;2531363;53;20956;-72
2022/07/25 07:25:40;;;;;;;5.82;4.00;;;26.60;53.70;;;;;;2341448;53;20947;-74
2022/07/25 07:28:07;;;;;;;5.80;4.30;;;26.70;53.60;;;;;;2329380;54;21452;-75
2022/07/25 07:30:33;;;;;;;5.95;4.72;;;26.80;53.50;;;;;;2509058;53;21004;-72
2022/07/25 07:33:18;;;;;;;5.10;4.12;;;26.90;53.40;;;;;;2341745;53;21134;-73
2022/07/25 07:35:46;;;;;;;6.18;3.97;;;27.00;53.40;;;;;;2305283;54;21044;-71
2022/07/25 07:38:13;;;;;;;5.20;3.87;;;27.10;53.40;;;;;;2339198;53;20971;-73
2022/07/25 07:40:40;;;;;;;4.72;4.07;;;27.30;53.30;;;;;;2335066;54;20961;-73
2022/07/25 07:43:06;;;;;;;5.32;4.25;;;27.40;53.40;;;;;;2335681;53;21433;-73
2022/07/25 07:45:32;;;;;;;6.57;4.78;;;27.50;53.20;;;;;;2342395;53;20991;-73
2022/07/25 07:47:59;;;;;;;5.30;4.28;;;27.70;53.10;;;;;;2331746;54;20992;-71
2022/07/25 07:50:28;;;;;;;6.85;4.68;;;27.80;53.10;;;;;;2338628;53;21027;-73
2022/07/25 07:52:57;;;;;;;5.22;4.30;;;27.90;53.20;;;;;;2339670;54;21097;-72
2022/07/25 07:58:14;;;;;;;5.82;4.50;;;28.20;53.20;;;;;;2338506;53;21027;-73
2022/07/25 08:00:40;;;;;;;;;;;28.30;53.10;;;;;;2348845;53;20951;-75
2022/07/25 08:03:07;;;;;;;5.30;4.30;;;28.50;53.00;;;;;;2332021;54;20168;-75
2022/07/25 08:05:42;;;;;;;4.53;3.60;;;28.60;52.80;;;;;;2339246;54;20949;-73
2022/07/25 08:08:09;;;;;;;6.53;4.45;;;28.70;52.60;;;;;;2331622;53;21048;-74
2022/07/25 08:10:37;;;;;;;5.57;4.57;;;28.80;52.70;;;;;;2579396;53;20963;-73
2022/07/25 08:13:22;;;;;;;5.20;4.30;;;28.90;52.70;;;;;;2573129;53;20933;-74
2022/07/25 08:15:50;;;;;;;10.18;4.97;;;29.10;52.90;;;;;;2377144;53;22050;-75
2022/07/25 08:18:17;;;;;;;5.82;4.82;;;29.20;52.80;;;;;;2335573;54;20955;-75
2022/07/25 08:20:45;;;;;;;5.50;4.40;;;29.30;52.70;;;;;;2327577;53;21472;-73
2022/07/25 08:23:11;;;;;;;5.93;4.90;;;29.40;52.50;;;;;;2572863;53;20995;-73
2022/07/25 08:25:38;;;;;;;7.00;4.82;;;29.50;52.50;;;;;;2336334;54;21944;-73
2022/07/25 08:28:05;;;;;;;6.22;5.05;;;29.60;52.40;;;;;;2333812;54;21049;-74
2022/07/25 08:30:32;;;;;;;5.55;4.57;;;29.70;52.20;;;;;;2431017;53;20953;-75
2022/07/25 08:33:04;;;;;;;5.97;4.80;;;29.90;52.30;;;;;;2502221;53;21090;-73
2022/07/25 08:35:31;;;;;;;5.12;4.25;;;30.00;51.90;;;;;;2330732;54;20990;-73
2022/07/25 08:38:01;;;;;;;5.20;4.25;;;30.10;51.90;;;;;;2585923;53;20978;-76
2022/07/25 08:40:28;;;;;;;6.87;4.93;;;30.20;51.70;;;;;;2339585;54;21028;-74
2022/07/25 08:42:55;;;;;;;5.32;4.50;;;30.30;51.50;;;;;;2350843;53;21847;-73
2022/07/25 08:45:23;;;;;;;5.53;4.50;;;30.40;51.30;;;;;;2333380;54;20939;-76
2022/07/25 08:47:50;;;;;;;7.50;4.60;;;30.50;51.00;;;;;;2379825;53;20964;-73
2022/07/25 08:50:18;;;;;;;6.45;4.70;;;30.60;50.60;;;;;;2341093;53;20996;-73
2022/07/25 08:52:46;;;;;;;6.12;4.47;;;30.70;50.10;;;;;;2507711;52;20968;-73
2022/07/25 08:55:18;;;;;;;5.50;4.57;;;30.80;49.90;;;;;;2345455;53;21002;-73
2022/07/25 08:57:49;;;;;;;6.18;4.37;;;30.90;49.70;;;;;;2392109;53;20946;-73
2022/07/25 09:00:23;;;;;;;8.55;4.57;;;31.00;49.60;;;;;;2338486;54;20958;-74
2022/07/25 09:02:53;;;;;;;4.85;4.25;;;31.10;49.20;;;;;;2508728;53;21054;-73
2022/07/25 09:05:21;;;;;;;5.62;4.47;;;31.20;48.90;;;;;;2326818;53;21057;-73
2022/07/25 09:07:47;;;;;;;5.82;4.82;;;31.20;48.70;;;;;;2404897;54;20960;-73
2022/07/25 09:10:23;;;;;;;5.57;4.70;;;31.30;48.80;;;;;;2325429;54;21410;-74
2022/07/25 09:12:57;;;;;;;5.28;4.47;;;31.40;48.60;;;;;;2525322;53;21497;-74
2022/07/25 09:15:28;;;;;;;5.55;4.28;;;31.50;48.60;;;;;;2441100;52;21426;-73
2022/07/25 09:17:56;;;;;;;5.75;4.22;;;31.60;48.20;;;;;;2375945;53;20992;-74
2022/07/25 09:20:24;;;;;;;5.72;4.20;;;31.70;48.10;;;;;;2338832;53;20966;-76
2022/07/25 09:22:52;;;;;;;5.22;4.35;;;31.70;47.80;;;;;;2572451;53;20999;-73
2022/07/25 09:25:25;;;;;;;6.03;4.43;;;31.80;47.60;;;;;;2341515;54;20971;-72
2022/07/25 09:27:51;;;;;;;5.90;4.57;;;31.90;47.40;;;;;;2418504;53;21984;-73
2022/07/25 09:30:18;;;;;;;5.60;4.53;;;32.00;47.40;;;;;;2334674;53;21337;-73
2022/07/25 09:32:45;;;;;;;6.45;4.40;;;32.00;47.30;;;;;;2573272;53;21539;-73
2022/07/25 09:35:12;;;;;;;5.37;4.43;;;32.20;47.20;;;;;;2483685;53;21082;-73
2022/07/25 09:37:38;;;;;;;4.95;3.90;;;32.20;47.10;;;;;;2413436;53;20965;-72
2022/07/25 09:40:13;;;;;;;5.25;4.47;;;32.30;47.10;;;;;;2339940;53;20900;-75
2022/07/25 09:42:41;;;;;;;5.00;4.18;;;32.40;46.70;;;;;;2366428;52;20958;-74
2022/07/25 09:45:12;;;;;;;5.68;4.45;;;32.50;46.80;;;;;;2487425;53;21015;-75
2022/07/25 09:47:58;;;;;;;5.57;4.57;;;32.60;46.80;;;;;;2352063;53;21441;-74
2022/07/25 09:50:29;;;;;;;4.70;3.67;;;32.60;46.70;;;;;;2466048;53;21053;-76
2022/07/25 09:53:00;;;;;;;5.15;4.25;;;32.70;46.70;;;;;;2378402;53;21000;-74
2022/07/25 09:55:27;;;;;;;5.50;3.58;;;32.80;46.40;;;;;;2337360;54;21126;-74
2022/07/25 09:57:54;;;;;;;5.10;4.12;;;32.90;46.30;;;;;;2405307;53;20936;-73
2022/07/25 10:00:24;;;;;;;4.72;3.65;;;33.00;46.40;;;;;;2337578;54;20971;-73
2022/07/25 10:04:17;;;;;;;5.15;3.85;;;33.00;46.10;;;;;;2402913;53;21470;-73
2022/07/25 10:07:05;;;;;;;5.32;3.70;;;33.20;45.60;;;;;;2359894;53;21084;-75
2022/07/25 10:09:31;;;;;;;4.32;3.50;;;33.30;45.40;;;;;;2466778;53;20947;-73
2022/07/25 10:12:05;;;;;;;4.45;3.58;;;33.40;45.70;;;;;;2342319;53;21560;-76
2022/07/25 10:14:32;;;;;;;4.97;3.72;;;33.50;45.20;;;;;;2337600;54;20952;-72
2022/07/25 10:17:00;;;;;;;5.60;3.80;;;33.50;45.10;;;;;;2335065;54;20971;-73
2022/07/25 10:21:19;;;;;;;4.97;3.83;;;33.60;44.70;;;;;;2325612;53;21020;-76
2022/07/25 10:24:07;;;;;;;4.40;3.08;;;33.70;44.40;;;;;;2334723;53;21468;-73
2022/07/25 10:26:39;;;;;;;4.32;3.35;;;33.80;44.40;;;;;;2338441;53;21897;-74
2022/07/25 10:29:08;;;;;;;4.35;3.22;;;33.90;44.00;;;;;;2329279;53;21070;-73
2022/07/25 10:31:44;;;;;;;4.47;3.28;;;33.90;43.60;;;;;;2515519;53;21947;-72
2022/07/25 10:34:15;;;;;;;4.57;3.50;;;34.00;43.60;;;;;;2337571;53;20964;-74
2022/07/25 10:36:54;;;;;;;4.22;3.25;;;34.00;43.60;;;;;;2582680;52;21019;-73
2022/07/25 10:39:21;;;;;;;4.28;3.20;;;34.00;43.30;;;;;;2338077;53;21019;-72
2022/07/25 10:41:55;;;;;;;3.80;2.87;;;34.10;43.00;;;;;;2579477;52;21571;-74
2022/07/25 10:44:22;;;;;;;4.97;3.28;;;34.20;42.60;;;;;;2333168;54;21020;-73
2022/07/25 10:46:49;;;;;;;5.75;3.50;;;34.30;42.70;;;;;;2345891;53;20971;-74
2022/07/25 10:49:19;;;;;;;4.97;3.33;;;34.30;42.50;;;;;;2541152;53;21070;-74
2022/07/25 10:52:02;;;;;;;4.03;3.20;;;34.40;42.20;;;;;;2339877;53;20940;-71
2022/07/25 10:54:36;;;;;;;4.00;2.90;;;34.50;41.90;;;;;;2328617;53;20996;-74
2022/07/25 10:57:03;;;;;;;4.37;2.83;;;34.50;41.70;;;;;;2486991;53;20997;-75
2022/07/25 10:59:37;;;;;;;3.90;2.80;;;34.60;41.90;;;;;;2340293;54;21011;-75
2022/07/25 11:02:16;;;;;;;4.10;2.83;;;34.60;40.90;;;;;;2366548;53;21046;-71
2022/07/25 11:04:57;;;;;;;3.47;2.62;;;34.60;41.50;;;;;;2466962;53;21400;-71
2022/07/25 11:07:23;;;;;;;4.45;2.92;;;34.80;41.30;;;;;;2366266;53;22034;-73
2022/07/25 11:10:00;;;;;;;4.00;2.83;;;34.80;41.50;;;;;;2338400;53;20995;-71
2022/07/25 11:12:27;;;;;;;4.22;2.72;;;34.90;40.90;;;;;;2327340;54;20921;-72
2022/07/25 11:15:01;;;;;;;4.97;3.12;;;34.90;41.30;;;;;;2345060;53;21873;-73
2022/07/25 11:17:28;;;;;;;3.70;2.83;;;35.00;40.90;;;;;;2576945;52;21590;-71
2022/07/25 11:20:04;;;;;;;5.18;2.95;;;35.10;41.00;;;;;;2441913;53;20947;-74
2022/07/25 11:22:33;;;;;;;8.02;3.40;;;35.20;40.30;;;;;;2422934;53;21015;-73
2022/07/25 11:25:08;;;;;;;4.50;2.85;;;35.20;40.60;;;;;;2319216;54;20941;-71
2022/07/25 11:27:34;;;;;;;5.03;3.05;;;35.30;40.30;;;;;;2574932;52;21862;-71
2022/07/25 11:30:20;;;;;;;5.55;3.28;;;35.30;40.10;;;;;;2333317;53;21030;-75
2022/07/25 11:32:52;;;;;;;4.50;2.92;;;35.40;39.60;;;;;;2349564;53;21041;-74
2022/07/25 11:35:29;;;;;;;3.97;2.78;;;35.40;39.40;;;;;;2344561;53;20943;-73
2022/07/25 11:37:57;;;;;;;4.68;3.10;;;35.50;38.90;;;;;;2357516;53;21005;-72
2022/07/25 11:40:24;;;;;;;9.32;4.07;;;35.50;39.40;;;;;;2356955;53;20981;-72
2022/07/25 11:42:52;;;;;;;5.18;3.10;;;35.60;39.30;;;;;;2343398;53;21047;-72
2022/07/25 11:45:24;;;;;;;4.18;3.20;;;35.70;39.50;;;;;;2331959;54;20943;-72
2022/07/25 11:48:07;;;;;;;4.40;3.17;;;35.70;39.10;;;;;;2581948;53;20943;-75
2022/07/25 11:50:35;;;;;;;4.07;3.00;;;35.80;38.50;;;;;;2443503;53;21587;-70
2022/07/25 11:53:05;;;;;;;4.15;3.35;;;35.80;39.10;;;;;;2346444;53;21008;-71
2022/07/25 11:55:36;;;;;;;4.72;3.30;;;35.80;38.50;;;;;;2530919;53;23214;-71
2022/07/25 11:58:04;;;;;;;4.20;3.03;;;35.90;38.60;;;;;;2572653;53;21027;-71
2022/07/25 12:00:32;;;;;;;3.90;2.83;;;35.90;38.50;;;;;;2349053;53;21496;-72
2022/07/25 12:03:09;;;;;;;5.32;3.00;;;35.90;38.30;;;;;;2486410;53;21757;-72
2022/07/25 12:05:37;;;;;;;4.15;2.95;;;36.00;37.90;;;;;;2336440;54;21134;-72
2022/07/25 12:08:22;;;;;;;4.20;3.12;;;36.00;38.30;;;;;;2404903;53;21019;-73
2022/07/25 12:10:50;;;;;;;4.20;3.20;;;36.10;38.00;;;;;;2328607;53;21056;-72
2022/07/25 12:13:23;;;;;;;4.85;2.70;;;36.20;38.30;;;;;;2327001;53;21552;-71
2022/07/25 12:15:55;;;;;;;3.30;2.42;;;36.20;38.00;;;;;;2541987;52;20943;-73
2022/07/25 12:18:21;;;;;;;4.85;3.00;;;36.20;38.30;;;;;;2474876;52;21495;-76
2022/07/25 12:20:49;;;;;;;3.85;2.90;;;36.30;38.10;;;;;;2335345;53;20885;-72
2022/07/25 12:23:17;;;;;;;4.10;3.10;;;36.30;37.90;;;;;;2496670;53;21811;-72
2022/07/25 12:25:44;;;;;;;3.75;2.33;;;36.40;37.70;;;;;;2333793;54;20971;-71
2022/07/25 12:28:11;;;;;;;3.92;2.45;;;36.40;37.70;;;;;;2338024;53;21448;-73
2022/07/25 12:30:38;;;;;;;3.45;2.40;;;36.40;37.50;;;;;;2340337;54;21024;-72
2022/07/25 12:33:05;;;;;;;4.00;2.70;;;36.50;37.40;;;;;;2332581;54;21119;-73
2022/07/25 12:35:32;;;;;;;3.90;2.67;;;36.50;37.40;;;;;;2335416;54;21023;-72
2022/07/25 12:38:00;;;;;;;3.80;2.83;;;36.50;37.30;;;;;;2337202;53;20893;-72
2022/07/25 12:40:27;;;;;;;4.60;2.60;;;36.50;37.10;;;;;;2324988;54;21043;-73
2022/07/25 12:42:54;;;;;;;4.35;2.45;;;36.50;36.90;;;;;;2590032;52;21063;-71
2022/07/25 12:45:21;;;;;;;3.97;2.70;;;36.60;37.00;;;;;;2347643;54;20961;-73
2022/07/25 12:47:48;;;;;;;4.10;2.80;;;36.60;37.10;;;;;;2325789;54;21075;-72
2022/07/25 12:50:14;;;;;;;23.12;3.67;;;36.70;36.90;;;;;;2576211;53;21840;-73
2022/07/25 12:52:41;;;;;;;5.60;2.67;;;36.80;36.50;;;;;;2572926;53;20920;-72
2022/07/25 12:55:10;;;;;;;3.58;2.67;;;36.80;36.20;;;;;;2337994;54;20966;-72
2022/07/25 12:57:36;;;;;;;5.62;3.12;;;36.90;36.20;;;;;;2348649;53;20960;-71
2022/07/25 13:00:06;;;;;;;4.10;2.92;;;36.90;36.10;;;;;;2560055;53;21478;-71
2022/07/25 13:02:32;;;;;;;4.37;2.70;;;37.00;35.80;;;;;;2358838;53;21596;-71
2022/07/25 13:04:59;;;;;;;7.75;2.80;;;37.00;35.70;;;;;;2337676;53;21607;-71